sensor_id;sensor_type;location;lat;lon;timestamp;P1;durP1;ratioP1;P2;durP2;ratioP2
31095;SDS011;17749;51.962;8.560;2023-04-28T05:02:08;8.38;;;4.95;;
31095;SDS011;17749;51.962;8.560;2023-04-28T05:04:35;8.00;;;5.47;;
31095;SDS011;17749;51.962;8.560;2023-04-28T05:07:02;12.55;;;5.72;;
31095;SDS011;17749;51.962;8.560;2023-04-28T05:09:30;10.73;;;5.32;;
31095;SDS011;17749;51.962;8.560;2023-04-28T05:11:59;13.85;;;5.55;;
31095;SDS011;17749;51.962;8.560;2023-04-28T05:14:26;9.45;;;5.88;;
31095;SDS011;17749;51.962;8.560;2023-04-28T05:16:53;15.90;;;6.10;;
31095;SDS011;17749;51.962;8.560;2023-04-28T05:19:24;10.45;;;6.35;;
31095;SDS011;17749;51.962;8.560;2023-04-28T05:21:51;12.75;;;6.18;;
31095;SDS011;17749;51.962;8.560;2023-04-28T05:24:21;11.57;;;5.70;;
31095;SDS011;17749;51.962;8.560;2023-04-28T05:26:51;11.40;;;5.30;;
31095;SDS011;17749;51.962;8.560;2023-04-28T05:29:20;12.77;;;5.75;;
31095;SDS011;17749;51.962;8.560;2023-04-28T05:31:47;12.75;;;5.95;;
31095;SDS011;17749;51.962;8.560;2023-04-28T05:34:14;9.02;;;5.13;;
31095;SDS011;17749;51.962;8.560;2023-04-28T05:36:43;11.05;;;5.90;;
31095;SDS011;17749;51.962;8.560;2023-04-28T05:39:11;10.63;;;6.20;;
31095;SDS011;17749;51.962;8.560;2023-04-28T05:41:40;9.00;;;6.00;;
31095;SDS011;17749;51.962;8.560;2023-04-28T05:44:07;14.73;;;6.20;;
31095;SDS011;17749;51.962;8.560;2023-04-28T05:46:35;8.30;;;5.53;;
31095;SDS011;17749;51.962;8.560;2023-04-28T05:49:02;12.63;;;6.38;;
31095;SDS011;17749;51.962;8.560;2023-04-28T05:51:33;9.60;;;6.05;;
31095;SDS011;17749;51.962;8.560;2023-04-28T05:54:01;9.88;;;6.50;;
31095;SDS011;17749;51.962;8.560;2023-04-28T05:56:29;11.00;;;6.07;;
31095;SDS011;17749;51.962;8.560;2023-04-28T05:58:57;11.45;;;6.15;;
31095;SDS011;17749;51.962;8.560;2023-04-28T06:01:26;8.95;;;6.00;;
31095;SDS011;17749;51.962;8.560;2023-04-28T06:03:53;10.27;;;6.10;;
31095;SDS011;17749;51.962;8.560;2023-04-28T06:06:23;9.48;;;6.07;;
31095;SDS011;17749;51.962;8.560;2023-04-28T06:08:52;8.60;;;5.70;;
31095;SDS011;17749;51.962;8.560;2023-04-28T06:11:19;16.20;;;6.63;;
31095;SDS011;17749;51.962;8.560;2023-04-28T06:13:48;11.40;;;5.87;;
31095;SDS011;17749;51.962;8.560;2023-04-28T06:16:17;11.32;;;6.20;;
31095;SDS011;17749;51.962;8.560;2023-04-28T06:18:45;7.97;;;6.15;;
31095;SDS011;17749;51.962;8.560;2023-04-28T06:21:16;10.27;;;5.28;;
31095;SDS011;17749;51.962;8.560;2023-04-28T06:23:43;8.88;;;5.55;;
31095;SDS011;17749;51.962;8.560;2023-04-28T06:26:10;14.60;;;6.07;;
31095;SDS011;17749;51.962;8.560;2023-04-28T06:28:38;9.02;;;5.68;;
31095;SDS011;17749;51.962;8.560;2023-04-28T06:31:07;9.85;;;6.28;;
31095;SDS011;17749;51.962;8.560;2023-04-28T06:33:34;10.98;;;6.55;;
31095;SDS011;17749;51.962;8.560;2023-04-28T06:36:01;11.07;;;5.70;;
31095;SDS011;17749;51.962;8.560;2023-04-28T06:38:28;12.45;;;5.97;;
31095;SDS011;17749;51.962;8.560;2023-04-28T06:40:54;10.73;;;5.97;;
31095;SDS011;17749;51.962;8.560;2023-04-28T06:43:22;12.02;;;5.43;;
31095;SDS011;17749;51.962;8.560;2023-04-28T06:46:06;10.05;;;5.80;;
31095;SDS011;17749;51.962;8.560;2023-04-28T06:48:34;10.52;;;6.00;;
31095;SDS011;17749;51.962;8.560;2023-04-28T06:51:01;9.95;;;6.50;;
31095;SDS011;17749;51.962;8.560;2023-04-28T06:53:27;11.60;;;6.88;;
31095;SDS011;17749;51.962;8.560;2023-04-28T06:55:54;10.57;;;6.85;;
31095;SDS011;17749;51.962;8.560;2023-04-28T06:58:22;8.38;;;6.07;;
31095;SDS011;17749;51.962;8.560;2023-04-28T07:00:48;10.48;;;6.95;;
31095;SDS011;17749;51.962;8.560;2023-04-28T07:03:16;10.52;;;6.82;;
31095;SDS011;17749;51.962;8.560;2023-04-28T07:05:43;10.88;;;6.05;;
31095;SDS011;17749;51.962;8.560;2023-04-28T07:08:10;11.10;;;6.85;;
31095;SDS011;17749;51.962;8.560;2023-04-28T07:10:36;12.75;;;5.80;;
31095;SDS011;17749;51.962;8.560;2023-04-28T07:13:03;8.52;;;5.68;;
31095;SDS011;17749;51.962;8.560;2023-04-28T07:15:30;9.20;;;6.00;;
31095;SDS011;17749;51.962;8.560;2023-04-28T07:17:57;11.18;;;6.68;;
31095;SDS011;17749;51.962;8.560;2023-04-28T07:20:24;10.98;;;6.07;;
31095;SDS011;17749;51.962;8.560;2023-04-28T07:22:51;12.52;;;6.50;;
31095;SDS011;17749;51.962;8.560;2023-04-28T07:25:18;10.23;;;6.53;;
31095;SDS011;17749;51.962;8.560;2023-04-28T07:27:45;15.50;;;7.45;;
31095;SDS011;17749;51.962;8.560;2023-04-28T07:30:12;10.88;;;7.35;;
31095;SDS011;17749;51.962;8.560;2023-04-28T07:32:53;8.75;;;6.18;;
31095;SDS011;17749;51.962;8.560;2023-04-28T07:35:20;8.90;;;5.72;;
31095;SDS011;17749;51.962;8.560;2023-04-28T07:37:47;14.13;;;5.78;;
31095;SDS011;17749;51.962;8.560;2023-04-28T07:40:13;10.32;;;6.32;;
31095;SDS011;17749;51.962;8.560;2023-04-28T07:42:41;15.65;;;7.03;;
31095;SDS011;17749;51.962;8.560;2023-04-28T07:45:08;11.35;;;6.35;;
31095;SDS011;17749;51.962;8.560;2023-04-28T07:47:36;16.50;;;8.63;;
31095;SDS011;17749;51.962;8.560;2023-04-28T07:50:04;17.80;;;8.23;;
31095;SDS011;17749;51.962;8.560;2023-04-28T07:52:32;12.07;;;7.60;;
31095;SDS011;17749;51.962;8.560;2023-04-28T07:54:59;17.48;;;8.18;;
31095;SDS011;17749;51.962;8.560;2023-04-28T07:57:28;13.20;;;6.85;;
31095;SDS011;17749;51.962;8.560;2023-04-28T07:59:55;8.98;;;5.72;;
31095;SDS011;17749;51.962;8.560;2023-04-28T08:02:22;10.15;;;5.90;;
31095;SDS011;17749;51.962;8.560;2023-04-28T08:04:49;8.98;;;6.43;;
31095;SDS011;17749;51.962;8.560;2023-04-28T08:07:17;9.93;;;6.55;;
31095;SDS011;17749;51.962;8.560;2023-04-28T08:09:44;10.93;;;7.03;;
31095;SDS011;17749;51.962;8.560;2023-04-28T08:12:13;11.35;;;6.30;;
31095;SDS011;17749;51.962;8.560;2023-04-28T08:14:40;9.85;;;6.15;;
31095;SDS011;17749;51.962;8.560;2023-04-28T08:17:07;11.57;;;6.45;;
31095;SDS011;17749;51.962;8.560;2023-04-28T08:19:35;9.35;;;6.13;;
31095;SDS011;17749;51.962;8.560;2023-04-28T08:22:02;17.15;;;9.23;;
31095;SDS011;17749;51.962;8.560;2023-04-28T08:24:32;12.13;;;6.88;;
31095;SDS011;17749;51.962;8.560;2023-04-28T08:27:00;8.07;;;5.90;;
31095;SDS011;17749;51.962;8.560;2023-04-28T08:29:29;10.15;;;5.97;;
31095;SDS011;17749;51.962;8.560;2023-04-28T08:31:57;9.57;;;6.15;;
31095;SDS011;17749;51.962;8.560;2023-04-28T08:34:24;7.47;;;5.45;;
31095;SDS011;17749;51.962;8.560;2023-04-28T08:36:51;10.68;;;5.45;;
31095;SDS011;17749;51.962;8.560;2023-04-28T08:39:19;7.15;;;5.00;;
31095;SDS011;17749;51.962;8.560;2023-04-28T08:41:49;9.98;;;5.18;;
31095;SDS011;17749;51.962;8.560;2023-04-28T08:44:16;7.43;;;5.85;;
31095;SDS011;17749;51.962;8.560;2023-04-28T08:46:43;10.68;;;5.43;;
31095;SDS011;17749;51.962;8.560;2023-04-28T08:49:13;10.23;;;5.43;;
31095;SDS011;17749;51.962;8.560;2023-04-28T08:51:45;8.65;;;5.13;;
31095;SDS011;17749;51.962;8.560;2023-04-28T08:54:18;9.57;;;5.53;;
31095;SDS011;17749;51.962;8.560;2023-04-28T08:56:52;10.60;;;5.18;;
31095;SDS011;17749;51.962;8.560;2023-04-28T08:59:19;7.68;;;5.22;;
31095;SDS011;17749;51.962;8.560;2023-04-28T09:01:51;11.38;;;5.35;;
31095;SDS011;17749;51.962;8.560;2023-04-28T09:04:18;9.55;;;5.20;;
31095;SDS011;17749;51.962;8.560;2023-04-28T09:06:46;8.52;;;5.20;;
31095;SDS011;17749;51.962;8.560;2023-04-28T09:09:32;9.30;;;4.95;;
31095;SDS011;17749;51.962;8.560;2023-04-28T09:12:03;9.60;;;5.75;;
31095;SDS011;17749;51.962;8.560;2023-04-28T09:14:31;13.15;;;5.07;;
31095;SDS011;17749;51.962;8.560;2023-04-28T09:17:02;8.32;;;5.30;;
31095;SDS011;17749;51.962;8.560;2023-04-28T09:19:36;6.38;;;4.57;;
31095;SDS011;17749;51.962;8.560;2023-04-28T09:22:04;11.27;;;5.75;;
31095;SDS011;17749;51.962;8.560;2023-04-28T09:24:50;9.23;;;5.80;;
31095;SDS011;17749;51.962;8.560;2023-04-28T09:27:27;13.75;;;7.82;;
31095;SDS011;17749;51.962;8.560;2023-04-28T09:29:54;14.13;;;6.72;;
31095;SDS011;17749;51.962;8.560;2023-04-28T09:32:21;10.23;;;6.60;;
31095;SDS011;17749;51.962;8.560;2023-04-28T09:34:52;14.27;;;6.90;;
31095;SDS011;17749;51.962;8.560;2023-04-28T09:37:20;9.05;;;6.72;;
31095;SDS011;17749;51.962;8.560;2023-04-28T09:42:29;11.23;;;7.60;;
31095;SDS011;17749;51.962;8.560;2023-04-28T09:45:04;9.68;;;7.22;;
31095;SDS011;17749;51.962;8.560;2023-04-28T09:47:33;9.77;;;7.13;;
31095;SDS011;17749;51.962;8.560;2023-04-28T09:50:05;12.13;;;6.82;;
31095;SDS011;17749;51.962;8.560;2023-04-28T09:52:35;11.35;;;7.43;;
31095;SDS011;17749;51.962;8.560;2023-04-28T09:55:02;13.13;;;7.18;;
31095;SDS011;17749;51.962;8.560;2023-04-28T09:57:32;12.23;;;8.40;;
31095;SDS011;17749;51.962;8.560;2023-04-28T10:00:01;13.43;;;7.38;;
31095;SDS011;17749;51.962;8.560;2023-04-28T10:02:33;9.82;;;6.95;;
31095;SDS011;17749;51.962;8.560;2023-04-28T10:05:04;14.05;;;8.38;;
31095;SDS011;17749;51.962;8.560;2023-04-28T10:07:37;11.02;;;7.65;;
31095;SDS011;17749;51.962;8.560;2023-04-28T10:10:05;22.35;;;8.80;;
31095;SDS011;17749;51.962;8.560;2023-04-28T10:12:33;15.65;;;7.53;;
31095;SDS011;17749;51.962;8.560;2023-04-28T10:15:00;10.40;;;7.20;;
31095;SDS011;17749;51.962;8.560;2023-04-28T10:17:27;14.32;;;8.90;;
31095;SDS011;17749;51.962;8.560;2023-04-28T10:19:55;9.93;;;7.72;;
31095;SDS011;17749;51.962;8.560;2023-04-28T10:27:41;13.85;;;7.88;;
31095;SDS011;17749;51.962;8.560;2023-04-28T10:30:10;11.35;;;7.07;;
31095;SDS011;17749;51.962;8.560;2023-04-28T10:38:11;10.57;;;7.38;;
31095;SDS011;17749;51.962;8.560;2023-04-28T10:40:40;10.10;;;7.28;;
31095;SDS011;17749;51.962;8.560;2023-04-28T10:43:07;11.63;;;7.32;;
31095;SDS011;17749;51.962;8.560;2023-04-28T10:48:16;9.65;;;7.10;;
31095;SDS011;17749;51.962;8.560;2023-04-28T10:58:50;12.75;;;8.30;;
31095;SDS011;17749;51.962;8.560;2023-04-28T11:03:48;13.45;;;8.13;;
31095;SDS011;17749;51.962;8.560;2023-04-28T11:07:20;10.88;;;6.75;;
31095;SDS011;17749;51.962;8.560;2023-04-28T11:09:47;10.52;;;7.55;;
31095;SDS011;17749;51.962;8.560;2023-04-28T11:12:15;9.65;;;7.55;;
31095;SDS011;17749;51.962;8.560;2023-04-28T11:14:42;12.10;;;7.93;;
31095;SDS011;17749;51.962;8.560;2023-04-28T11:17:12;11.50;;;7.80;;
31095;SDS011;17749;51.962;8.560;2023-04-28T11:19:48;12.00;;;8.68;;
31095;SDS011;17749;51.962;8.560;2023-04-28T11:22:25;11.65;;;8.35;;
31095;SDS011;17749;51.962;8.560;2023-04-28T11:24:58;9.90;;;7.83;;
31095;SDS011;17749;51.962;8.560;2023-04-28T11:27:31;11.43;;;7.22;;
31095;SDS011;17749;51.962;8.560;2023-04-28T11:30:18;11.77;;;7.43;;
31095;SDS011;17749;51.962;8.560;2023-04-28T11:32:59;9.73;;;6.88;;
31095;SDS011;17749;51.962;8.560;2023-04-28T11:35:52;12.48;;;8.32;;
31095;SDS011;17749;51.962;8.560;2023-04-28T11:38:24;11.15;;;7.47;;
31095;SDS011;17749;51.962;8.560;2023-04-28T11:41:07;8.60;;;6.90;;
31095;SDS011;17749;51.962;8.560;2023-04-28T11:43:39;11.00;;;6.57;;
31095;SDS011;17749;51.962;8.560;2023-04-28T11:46:18;8.32;;;6.63;;
31095;SDS011;17749;51.962;8.560;2023-04-28T11:49:14;8.63;;;6.30;;
31095;SDS011;17749;51.962;8.560;2023-04-28T11:52:25;9.27;;;6.35;;
31095;SDS011;17749;51.962;8.560;2023-04-28T11:54:56;10.10;;;6.90;;
31095;SDS011;17749;51.962;8.560;2023-04-28T12:01:26;8.93;;;5.68;;
31095;SDS011;17749;51.962;8.560;2023-04-28T12:04:04;8.85;;;7.13;;
31095;SDS011;17749;51.962;8.560;2023-04-28T12:06:44;7.45;;;6.20;;
31095;SDS011;17749;51.962;8.560;2023-04-28T12:09:14;11.90;;;7.50;;
31095;SDS011;17749;51.962;8.560;2023-04-28T12:12:13;9.75;;;6.32;;
31095;SDS011;17749;51.962;8.560;2023-04-28T12:14:57;14.68;;;8.55;;
31095;SDS011;17749;51.962;8.560;2023-04-28T12:17:41;8.40;;;6.15;;
31095;SDS011;17749;51.962;8.560;2023-04-28T12:20:33;8.80;;;6.47;;
31095;SDS011;17749;51.962;8.560;2023-04-28T12:23:27;9.63;;;7.22;;
31095;SDS011;17749;51.962;8.560;2023-04-28T12:26:05;8.35;;;6.93;;
31095;SDS011;17749;51.962;8.560;2023-04-28T12:28:41;9.25;;;6.85;;
31095;SDS011;17749;51.962;8.560;2023-04-28T12:31:16;11.02;;;7.22;;
31095;SDS011;17749;51.962;8.560;2023-04-28T12:33:55;9.85;;;6.82;;
31095;SDS011;17749;51.962;8.560;2023-04-28T12:36:28;9.43;;;6.32;;
31095;SDS011;17749;51.962;8.560;2023-04-28T12:39:22;9.85;;;6.90;;
31095;SDS011;17749;51.962;8.560;2023-04-28T12:41:56;8.88;;;7.18;;
31095;SDS011;17749;51.962;8.560;2023-04-28T12:44:36;9.07;;;6.82;;
31095;SDS011;17749;51.962;8.560;2023-04-28T12:47:10;9.10;;;6.65;;
31095;SDS011;17749;51.962;8.560;2023-04-28T12:49:40;12.40;;;8.23;;
31095;SDS011;17749;51.962;8.560;2023-04-28T12:52:18;7.95;;;6.32;;
31095;SDS011;17749;51.962;8.560;2023-04-28T12:54:46;9.18;;;6.85;;
31095;SDS011;17749;51.962;8.560;2023-04-28T12:57:22;12.25;;;7.90;;
31095;SDS011;17749;51.962;8.560;2023-04-28T12:59:53;10.82;;;7.15;;
31095;SDS011;17749;51.962;8.560;2023-04-28T13:02:38;11.68;;;7.82;;
31095;SDS011;17749;51.962;8.560;2023-04-28T13:05:18;14.25;;;7.80;;
31095;SDS011;17749;51.962;8.560;2023-04-28T13:07:53;8.38;;;6.85;;
31095;SDS011;17749;51.962;8.560;2023-04-28T13:10:23;10.13;;;7.20;;
31095;SDS011;17749;51.962;8.560;2023-04-28T13:12:53;10.30;;;7.80;;
31095;SDS011;17749;51.962;8.560;2023-04-28T13:15:21;11.52;;;6.85;;
31095;SDS011;17749;51.962;8.560;2023-04-28T13:17:51;13.00;;;9.55;;
31095;SDS011;17749;51.962;8.560;2023-04-28T13:20:23;10.70;;;8.10;;
31095;SDS011;17749;51.962;8.560;2023-04-28T13:22:52;10.82;;;8.93;;
31095;SDS011;17749;51.962;8.560;2023-04-28T13:25:19;8.55;;;7.22;;
31095;SDS011;17749;51.962;8.560;2023-04-28T13:27:51;11.32;;;8.07;;
31095;SDS011;17749;51.962;8.560;2023-04-28T13:30:19;10.98;;;8.60;;
31095;SDS011;17749;51.962;8.560;2023-04-28T13:32:51;10.02;;;7.68;;
31095;SDS011;17749;51.962;8.560;2023-04-28T13:35:25;11.43;;;8.30;;
31095;SDS011;17749;51.962;8.560;2023-04-28T13:37:58;9.85;;;7.70;;
31095;SDS011;17749;51.962;8.560;2023-04-28T13:40:31;8.52;;;7.63;;
31095;SDS011;17749;51.962;8.560;2023-04-28T13:43:05;9.43;;;6.93;;
31095;SDS011;17749;51.962;8.560;2023-04-28T13:45:43;9.60;;;7.35;;
31095;SDS011;17749;51.962;8.560;2023-04-28T13:48:16;11.30;;;6.85;;
31095;SDS011;17749;51.962;8.560;2023-04-28T13:50:47;10.85;;;7.22;;
31095;SDS011;17749;51.962;8.560;2023-04-28T13:53:19;9.60;;;7.70;;
31095;SDS011;17749;51.962;8.560;2023-04-28T13:55:49;10.88;;;7.03;;
31095;SDS011;17749;51.962;8.560;2023-04-28T13:58:19;8.50;;;7.20;;
31095;SDS011;17749;51.962;8.560;2023-04-28T14:00:50;8.50;;;6.93;;
31095;SDS011;17749;51.962;8.560;2023-04-28T14:03:24;8.75;;;7.30;;
31095;SDS011;17749;51.962;8.560;2023-04-28T14:06:09;8.95;;;7.70;;
31095;SDS011;17749;51.962;8.560;2023-04-28T14:08:42;10.70;;;7.50;;
31095;SDS011;17749;51.962;8.560;2023-04-28T14:11:15;8.43;;;7.07;;
31095;SDS011;17749;51.962;8.560;2023-04-28T14:13:52;9.82;;;6.75;;
31095;SDS011;17749;51.962;8.560;2023-04-28T14:16:24;10.50;;;7.72;;
31095;SDS011;17749;51.962;8.560;2023-04-28T14:18:52;15.45;;;8.95;;
31095;SDS011;17749;51.962;8.560;2023-04-28T14:21:21;9.85;;;7.50;;
31095;SDS011;17749;51.962;8.560;2023-04-28T14:23:59;10.60;;;8.15;;
31095;SDS011;17749;51.962;8.560;2023-04-28T14:26:36;13.68;;;9.27;;
31095;SDS011;17749;51.962;8.560;2023-04-28T14:29:27;9.13;;;7.85;;
31095;SDS011;17749;51.962;8.560;2023-04-28T14:31:57;10.30;;;8.50;;
31095;SDS011;17749;51.962;8.560;2023-04-28T14:34:31;13.18;;;8.65;;
31095;SDS011;17749;51.962;8.560;2023-04-28T14:37:02;11.23;;;8.13;;
31095;SDS011;17749;51.962;8.560;2023-04-28T14:42:40;11.95;;;8.68;;
31095;SDS011;17749;51.962;8.560;2023-04-28T14:45:22;13.48;;;9.05;;
31095;SDS011;17749;51.962;8.560;2023-04-28T14:48:04;12.00;;;8.80;;
31095;SDS011;17749;51.962;8.560;2023-04-28T14:50:44;10.32;;;8.82;;
31095;SDS011;17749;51.962;8.560;2023-04-28T14:53:15;14.55;;;9.10;;
31095;SDS011;17749;51.962;8.560;2023-04-28T14:55:48;14.93;;;10.15;;
31095;SDS011;17749;51.962;8.560;2023-04-28T14:58:38;12.80;;;10.13;;
31095;SDS011;17749;51.962;8.560;2023-04-28T15:04:18;14.18;;;9.93;;
31095;SDS011;17749;51.962;8.560;2023-04-28T15:06:46;12.20;;;9.05;;
31095;SDS011;17749;51.962;8.560;2023-04-28T15:09:16;14.32;;;10.05;;
31095;SDS011;17749;51.962;8.560;2023-04-28T15:11:55;13.00;;;10.48;;
31095;SDS011;17749;51.962;8.560;2023-04-28T15:14:28;15.70;;;11.02;;
31095;SDS011;17749;51.962;8.560;2023-04-28T15:17:12;14.88;;;10.60;;
31095;SDS011;17749;51.962;8.560;2023-04-28T15:20:04;14.50;;;11.52;;
31095;SDS011;17749;51.962;8.560;2023-04-28T15:22:59;15.88;;;12.43;;
31095;SDS011;17749;51.962;8.560;2023-04-28T15:25:37;16.08;;;11.50;;
31095;SDS011;17749;51.962;8.560;2023-04-28T15:28:13;14.77;;;11.05;;
31095;SDS011;17749;51.962;8.560;2023-04-28T15:30:48;16.00;;;12.00;;
31095;SDS011;17749;51.962;8.560;2023-04-28T15:33:18;14.43;;;10.98;;
31095;SDS011;17749;51.962;8.560;2023-04-28T15:35:47;16.63;;;11.77;;
31095;SDS011;17749;51.962;8.560;2023-04-28T15:38:27;14.68;;;11.05;;
31095;SDS011;17749;51.962;8.560;2023-04-28T15:41:11;14.38;;;10.07;;
31095;SDS011;17749;51.962;8.560;2023-04-28T15:43:45;12.20;;;10.32;;
31095;SDS011;17749;51.962;8.560;2023-04-28T15:46:20;12.88;;;10.75;;
31095;SDS011;17749;51.962;8.560;2023-04-28T15:49:13;15.60;;;11.85;;
31095;SDS011;17749;51.962;8.560;2023-04-28T15:52:07;12.60;;;10.25;;
31095;SDS011;17749;51.962;8.560;2023-04-28T15:54:42;15.98;;;10.15;;
31095;SDS011;17749;51.962;8.560;2023-04-28T15:57:46;13.00;;;9.75;;
31095;SDS011;17749;51.962;8.560;2023-04-28T16:00:24;14.73;;;11.27;;
31095;SDS011;17749;51.962;8.560;2023-04-28T16:02:58;15.52;;;10.80;;
31095;SDS011;17749;51.962;8.560;2023-04-28T16:05:27;9.50;;;6.22;;
31095;SDS011;17749;51.962;8.560;2023-04-28T16:07:59;13.15;;;9.13;;
31095;SDS011;17749;51.962;8.560;2023-04-28T16:10:29;11.48;;;9.93;;
31095;SDS011;17749;51.962;8.560;2023-04-28T16:13:02;12.25;;;9.95;;
31095;SDS011;17749;51.962;8.560;2023-04-28T16:15:31;13.88;;;11.15;;
31095;SDS011;17749;51.962;8.560;2023-04-28T16:18:03;12.00;;;9.65;;
31095;SDS011;17749;51.962;8.560;2023-04-28T16:20:48;12.50;;;10.20;;
31095;SDS011;17749;51.962;8.560;2023-04-28T16:23:15;12.65;;;10.25;;
31095;SDS011;17749;51.962;8.560;2023-04-28T16:25:48;13.75;;;10.38;;
31095;SDS011;17749;51.962;8.560;2023-04-28T16:28:16;11.38;;;9.48;;
31095;SDS011;17749;51.962;8.560;2023-04-28T16:30:43;12.50;;;10.30;;
31095;SDS011;17749;51.962;8.560;2023-04-28T16:33:10;14.80;;;11.82;;
31095;SDS011;17749;51.962;8.560;2023-04-28T16:35:38;12.27;;;9.85;;
31095;SDS011;17749;51.962;8.560;2023-04-28T16:38:05;13.48;;;10.82;;
31095;SDS011;17749;51.962;8.560;2023-04-28T16:40:32;16.48;;;12.10;;
31095;SDS011;17749;51.962;8.560;2023-04-28T16:42:59;15.80;;;10.75;;
31095;SDS011;17749;51.962;8.560;2023-04-28T16:45:26;12.38;;;10.27;;
31095;SDS011;17749;51.962;8.560;2023-04-28T16:47:53;14.65;;;11.35;;
31095;SDS011;17749;51.962;8.560;2023-04-28T16:50:20;14.60;;;11.63;;
31095;SDS011;17749;51.962;8.560;2023-04-28T16:52:54;19.80;;;13.70;;
31095;SDS011;17749;51.962;8.560;2023-04-28T16:55:24;15.75;;;11.38;;
31095;SDS011;17749;51.962;8.560;2023-04-28T16:57:55;13.40;;;10.68;;
31095;SDS011;17749;51.962;8.560;2023-04-28T17:00:27;16.60;;;12.13;;
31095;SDS011;17749;51.962;8.560;2023-04-28T17:02:54;16.55;;;13.48;;
31095;SDS011;17749;51.962;8.560;2023-04-28T17:05:24;16.33;;;12.55;;
31095;SDS011;17749;51.962;8.560;2023-04-28T17:07:53;18.13;;;13.25;;
31095;SDS011;17749;51.962;8.560;2023-04-28T17:10:24;17.92;;;13.90;;
31095;SDS011;17749;51.962;8.560;2023-04-28T17:12:52;17.80;;;14.85;;
31095;SDS011;17749;51.962;8.560;2023-04-28T17:15:19;17.80;;;13.43;;
31095;SDS011;17749;51.962;8.560;2023-04-28T17:17:47;16.33;;;12.63;;
31095;SDS011;17749;51.962;8.560;2023-04-28T17:20:20;17.83;;;13.80;;
31095;SDS011;17749;51.962;8.560;2023-04-28T17:22:48;16.55;;;12.38;;
31095;SDS011;17749;51.962;8.560;2023-04-28T17:25:15;16.58;;;12.75;;
31095;SDS011;17749;51.962;8.560;2023-04-28T17:27:42;16.20;;;13.02;;
31095;SDS011;17749;51.962;8.560;2023-04-28T17:30:09;20.02;;;13.18;;
31095;SDS011;17749;51.962;8.560;2023-04-28T17:32:36;18.52;;;13.82;;
31095;SDS011;17749;51.962;8.560;2023-04-28T17:35:04;18.35;;;13.25;;
31095;SDS011;17749;51.962;8.560;2023-04-28T17:37:31;23.45;;;13.45;;
31095;SDS011;17749;51.962;8.560;2023-04-28T17:39:59;19.05;;;12.70;;
31095;SDS011;17749;51.962;8.560;2023-04-28T17:42:30;13.45;;;11.02;;
31095;SDS011;17749;51.962;8.560;2023-04-28T17:44:57;13.15;;;10.00;;
31095;SDS011;17749;51.962;8.560;2023-04-28T17:47:24;11.88;;;9.02;;
31095;SDS011;17749;51.962;8.560;2023-04-28T17:49:51;12.15;;;8.73;;
31095;SDS011;17749;51.962;8.560;2023-04-28T17:52:18;12.55;;;8.45;;
31095;SDS011;17749;51.962;8.560;2023-04-28T17:54:47;13.57;;;10.13;;
31095;SDS011;17749;51.962;8.560;2023-04-28T17:57:16;11.27;;;9.15;;
31095;SDS011;17749;51.962;8.560;2023-04-28T18:03:02;9.82;;;7.50;;
31095;SDS011;17749;51.962;8.560;2023-04-28T18:05:30;9.15;;;6.85;;
31095;SDS011;17749;51.962;8.560;2023-04-28T18:07:59;7.88;;;5.40;;
31095;SDS011;17749;51.962;8.560;2023-04-28T18:10:29;8.45;;;5.55;;
31095;SDS011;17749;51.962;8.560;2023-04-28T18:12:57;7.28;;;5.00;;
31095;SDS011;17749;51.962;8.560;2023-04-28T18:15:24;7.45;;;5.45;;
31095;SDS011;17749;51.962;8.560;2023-04-28T18:17:51;5.68;;;4.18;;
31095;SDS011;17749;51.962;8.560;2023-04-28T18:20:18;6.22;;;4.35;;
31095;SDS011;17749;51.962;8.560;2023-04-28T18:22:45;5.82;;;4.28;;
31095;SDS011;17749;51.962;8.560;2023-04-28T18:25:12;9.35;;;5.90;;
31095;SDS011;17749;51.962;8.560;2023-04-28T18:27:42;7.50;;;4.88;;
31095;SDS011;17749;51.962;8.560;2023-04-28T18:30:09;8.50;;;5.18;;
31095;SDS011;17749;51.962;8.560;2023-04-28T18:32:36;7.35;;;4.88;;
31095;SDS011;17749;51.962;8.560;2023-04-28T18:35:03;5.82;;;4.40;;
31095;SDS011;17749;51.962;8.560;2023-04-28T18:37:30;6.40;;;4.72;;
31095;SDS011;17749;51.962;8.560;2023-04-28T18:39:57;6.13;;;4.57;;
31095;SDS011;17749;51.962;8.560;2023-04-28T18:42:24;8.73;;;5.10;;
31095;SDS011;17749;51.962;8.560;2023-04-28T18:44:53;6.95;;;4.63;;
31095;SDS011;17749;51.962;8.560;2023-04-28T18:47:22;6.40;;;4.78;;
31095;SDS011;17749;51.962;8.560;2023-04-28T18:49:50;6.10;;;4.82;;
31095;SDS011;17749;51.962;8.560;2023-04-28T18:52:17;6.75;;;4.60;;
31095;SDS011;17749;51.962;8.560;2023-04-28T18:54:44;7.10;;;4.75;;
31095;SDS011;17749;51.962;8.560;2023-04-28T18:57:11;7.85;;;4.88;;
31095;SDS011;17749;51.962;8.560;2023-04-28T18:59:38;8.38;;;5.07;;
31095;SDS011;17749;51.962;8.560;2023-04-28T19:02:05;6.50;;;4.60;;
31095;SDS011;17749;51.962;8.560;2023-04-28T19:04:32;8.00;;;5.85;;
31095;SDS011;17749;51.962;8.560;2023-04-28T19:06:59;6.75;;;5.10;;
31095;SDS011;17749;51.962;8.560;2023-04-28T19:09:26;7.07;;;4.85;;
31095;SDS011;17749;51.962;8.560;2023-04-28T19:11:53;6.68;;;4.85;;
31095;SDS011;17749;51.962;8.560;2023-04-28T19:14:20;8.90;;;5.60;;
31095;SDS011;17749;51.962;8.560;2023-04-28T19:16:47;7.40;;;5.43;;
31095;SDS011;17749;51.962;8.560;2023-04-28T19:19:14;7.43;;;5.07;;
31095;SDS011;17749;51.962;8.560;2023-04-28T19:21:41;6.85;;;5.20;;
31095;SDS011;17749;51.962;8.560;2023-04-28T19:24:10;7.90;;;5.10;;
31095;SDS011;17749;51.962;8.560;2023-04-28T19:26:38;6.72;;;4.82;;
31095;SDS011;17749;51.962;8.560;2023-04-28T19:29:05;8.38;;;4.88;;
31095;SDS011;17749;51.962;8.560;2023-04-28T19:31:32;6.60;;;5.10;;
31095;SDS011;17749;51.962;8.560;2023-04-28T19:33:59;5.80;;;5.10;;
31095;SDS011;17749;51.962;8.560;2023-04-28T19:36:25;8.38;;;5.65;;
31095;SDS011;17749;51.962;8.560;2023-04-28T19:38:53;9.70;;;6.57;;
31095;SDS011;17749;51.962;8.560;2023-04-28T19:41:20;10.65;;;7.00;;
31095;SDS011;17749;51.962;8.560;2023-04-28T19:43:47;8.82;;;5.40;;
31095;SDS011;17749;51.962;8.560;2023-04-28T19:46:14;8.02;;;6.07;;
31095;SDS011;17749;51.962;8.560;2023-04-28T19:48:42;7.63;;;5.78;;
31095;SDS011;17749;51.962;8.560;2023-04-28T19:53:39;9.27;;;6.85;;
31095;SDS011;17749;51.962;8.560;2023-04-28T19:56:06;9.07;;;6.57;;
31095;SDS011;17749;51.962;8.560;2023-04-28T19:58:35;8.30;;;6.20;;
31095;SDS011;17749;51.962;8.560;2023-04-28T20:01:06;8.15;;;6.03;;
31095;SDS011;17749;51.962;8.560;2023-04-28T20:03:33;8.52;;;6.53;;
31095;SDS011;17749;51.962;8.560;2023-04-28T20:06:01;9.98;;;6.15;;
31095;SDS011;17749;51.962;8.560;2023-04-28T20:08:29;9.45;;;6.97;;
31095;SDS011;17749;51.962;8.560;2023-04-28T20:10:56;8.35;;;6.72;;
31095;SDS011;17749;51.962;8.560;2023-04-28T20:13:23;9.88;;;7.05;;
31095;SDS011;17749;51.962;8.560;2023-04-28T20:15:53;8.98;;;7.00;;
31095;SDS011;17749;51.962;8.560;2023-04-28T20:18:20;10.05;;;7.00;;
31095;SDS011;17749;51.962;8.560;2023-04-28T20:20:50;10.13;;;7.07;;
31095;SDS011;17749;51.962;8.560;2023-04-28T20:23:18;11.05;;;6.43;;
31095;SDS011;17749;51.962;8.560;2023-04-28T20:25:45;8.55;;;6.53;;
31095;SDS011;17749;51.962;8.560;2023-04-28T20:28:12;9.30;;;7.55;;
